Time;durP1;ratioP1;P1;durP2;ratioP2;P2;SDS_P1;SDS_P2;PMS_P1;PMS_P2;Temp;Humidity;BMP_temperature;BMP_pressure;BME280_temperature;BME280_humidity;BME280_pressure;Samples;Min_cycle;Max_cycle;Signal;HPM_P1;HPM_P2
2022/05/22 00:02:00;;;;;;;11.57;4.85;;;9.10;99.90;;;;;;4986292;28;20042;-67
2022/05/22 00:04:26;;;;;;;12.68;5.50;;;9.10;99.90;;;;;;4994741;28;20048;-67
2022/05/22 00:06:52;;;;;;;15.35;6.10;;;9.10;99.90;;;;;;4986786;28;20054;-68
2022/05/22 00:09:18;;;;;;;12.38;5.60;;;9.10;99.90;;;;;;4983166;28;20490;-67
2022/05/22 00:11:44;;;;;;;14.30;5.78;;;9.10;99.90;;;;;;4979886;28;20165;-67
2022/05/22 00:14:11;;;;;;;12.60;5.10;;;9.20;99.90;;;;;;4990003;28;20046;-66
2022/05/22 00:16:41;;;;;;;11.05;5.50;;;9.10;99.90;;;;;;4989363;28;20061;-66
2022/05/22 00:19:13;;;;;;;9.90;5.28;;;9.00;99.90;;;;;;5001899;28;20757;-70
2022/05/22 00:21:40;;;;;;;13.88;6.68;;;9.10;99.90;;;;;;4981395;28;20395;-66
2022/05/22 00:24:06;;;;;;;11.70;5.90;;;9.10;99.90;;;;;;4986082;28;20057;-68
2022/05/22 00:26:33;;;;;;;13.20;6.05;;;9.00;99.90;;;;;;4957901;28;20058;-67
2022/05/22 00:28:59;;;;;;;10.02;5.68;;;9.00;99.90;;;;;;4994869;28;20111;-68
2022/05/22 00:31:26;;;;;;;13.73;5.75;;;9.00;99.90;;;;;;4973178;28;20054;-67
2022/05/22 00:33:52;;;;;;;10.45;5.40;;;8.90;99.90;;;;;;4987978;28;20683;-66
2022/05/22 00:36:18;;;;;;;10.35;3.33;;;8.90;99.90;;;;;;5010465;28;21460;-67
2022/05/22 00:38:44;;;;;;;5.82;3.70;;;8.80;99.90;;;;;;4990007;28;20184;-67
2022/05/22 00:41:10;;;;;;;10.13;5.78;;;8.80;99.90;;;;;;4974053;28;20552;-68
2022/05/22 00:43:41;;;;;;;12.85;5.35;;;8.80;99.90;;;;;;4995417;28;20049;-67
2022/05/22 00:46:11;;;;;;;11.93;5.57;;;8.80;99.90;;;;;;5005404;28;20053;-67
2022/05/22 00:48:38;;;;;;;7.88;4.25;;;8.80;99.90;;;;;;4979270;28;20042;-67
2022/05/22 00:51:21;;;;;;;5.93;3.70;;;8.70;99.90;;;;;;4995062;28;20408;-68
2022/05/22 00:53:55;;;;;;;11.07;5.78;;;8.70;99.90;;;;;;4971541;28;20407;-68
2022/05/22 00:56:26;;;;;;;10.07;5.45;;;8.70;99.90;;;;;;4991927;28;20050;-67
2022/05/22 00:58:55;;;;;;;14.05;6.38;;;8.60;99.90;;;;;;4978964;28;20562;-67
2022/05/22 01:01:21;;;;;;;12.48;6.38;;;8.60;99.90;;;;;;4991544;28;20049;-67
2022/05/22 01:03:47;;;;;;;13.52;6.60;;;8.60;99.90;;;;;;4994874;28;20049;-67
2022/05/22 01:06:18;;;;;;;16.05;6.80;;;8.60;99.90;;;;;;4993208;28;20046;-68
2022/05/22 01:08:47;;;;;;;10.40;5.82;;;8.70;99.90;;;;;;4977765;28;20062;-67
2022/05/22 01:11:18;;;;;;;13.07;6.38;;;8.60;99.90;;;;;;4959274;28;20061;-67
2022/05/22 01:13:52;;;;;;;8.70;5.00;;;8.60;99.90;;;;;;4976075;28;20060;-68
2022/05/22 01:16:19;;;;;;;5.88;3.65;;;8.60;99.90;;;;;;4987663;28;20049;-67
2022/05/22 01:18:51;;;;;;;10.02;4.97;;;8.50;99.90;;;;;;4993943;28;20053;-67
2022/05/22 01:21:29;;;;;;;13.07;5.88;;;8.40;99.90;;;;;;4993196;28;20089;-67
2022/05/22 01:23:57;;;;;;;11.43;5.78;;;8.40;99.90;;;;;;4978946;28;20050;-68
2022/05/22 01:26:25;;;;;;;11.90;6.35;;;8.40;99.90;;;;;;4980232;28;20041;-68
2022/05/22 01:28:51;;;;;;;11.40;5.30;;;8.30;99.90;;;;;;4991244;28;20045;-67
2022/05/22 01:31:18;;;;;;;14.55;6.30;;;8.30;99.90;;;;;;4994251;28;20496;-67
2022/05/22 01:33:44;;;;;;;13.07;6.78;;;8.30;99.90;;;;;;4994175;28;20144;-69
2022/05/22 01:36:10;;;;;;;10.10;5.40;;;8.30;99.90;;;;;;4975326;28;20097;-68
2022/05/22 01:38:37;;;;;;;10.52;5.70;;;8.30;99.90;;;;;;5008511;28;20050;-67
2022/05/22 01:41:05;;;;;;;13.02;6.70;;;8.20;99.90;;;;;;5008319;28;20050;-67
2022/05/22 01:43:31;;;;;;;16.67;6.80;;;8.20;99.90;;;;;;4992227;28;20077;-70
2022/05/22 01:45:57;;;;;;;13.18;6.60;;;8.20;99.90;;;;;;4959542;28;20041;-67
2022/05/22 01:48:24;;;;;;;10.02;5.03;;;8.20;99.90;;;;;;4991002;28;20125;-67
2022/05/22 01:50:50;;;;;;;8.43;4.47;;;8.20;99.90;;;;;;4969670;28;20078;-67
2022/05/22 01:53:19;;;;;;;11.13;4.63;;;8.10;99.90;;;;;;4979332;28;20050;-70
2022/05/22 01:55:46;;;;;;;5.13;2.92;;;8.10;99.90;;;;;;4982513;28;20060;-69
2022/05/22 01:58:12;;;;;;;10.13;2.97;;;8.10;99.90;;;;;;4988740;28;20056;-66
2022/05/22 02:00:39;;;;;;;3.65;2.85;;;8.00;99.90;;;;;;4987007;28;20042;-67
2022/05/22 02:03:06;;;;;;;5.70;3.13;;;7.90;99.90;;;;;;4965209;28;20045;-66
2022/05/22 02:05:33;;;;;;;23.30;3.30;;;7.90;99.90;;;;;;4972193;28;20048;-66
2022/05/22 02:10:44;;;;;;;9.90;5.35;;;7.80;99.90;;;;;;4990395;28;20100;-66
2022/05/22 02:13:10;;;;;;;13.00;6.03;;;7.90;99.90;;;;;;4974828;28;20403;-67
2022/05/22 02:15:37;;;;;;;13.93;7.32;;;7.90;99.90;;;;;;4951841;28;20050;-66
2022/05/22 02:18:03;;;;;;;11.55;5.50;;;8.00;99.90;;;;;;4981118;28;20081;-66
2022/05/22 02:20:30;;;;;;;37.15;6.18;;;7.90;99.90;;;;;;4973856;28;20521;-68
2022/05/22 02:22:57;;;;;;;13.07;5.38;;;7.90;99.90;;;;;;4971410;28;20049;-66
2022/05/22 02:25:30;;;;;;;13.18;6.18;;;7.90;99.90;;;;;;4989467;28;20042;-65
2022/05/22 02:27:56;;;;;;;14.25;6.78;;;7.90;99.90;;;;;;4984248;28;20122;-67
2022/05/22 02:30:27;;;;;;;18.55;6.95;;;7.90;99.90;;;;;;4985400;28;20045;-66
2022/05/22 02:32:53;;;;;;;15.98;6.80;;;7.90;99.90;;;;;;4979782;28;20116;-66
2022/05/22 02:35:19;;;;;;;12.60;5.85;;;8.00;99.90;;;;;;4993084;28;20283;-66
2022/05/22 02:37:47;;;;;;;7.90;5.00;;;8.00;99.90;;;;;;4987656;28;20046;-66
2022/05/22 02:40:15;;;;;;;7.63;4.40;;;7.90;99.90;;;;;;4964043;28;20053;-66
2022/05/22 02:42:44;;;;;;;12.35;6.20;;;7.90;99.90;;;;;;4978524;28;20494;-69
2022/05/22 02:45:11;;;;;;;60.28;6.38;;;7.80;99.90;;;;;;4990417;28;20120;-69
2022/05/22 02:47:37;;;;;;;13.07;5.47;;;7.80;99.90;;;;;;5008693;28;20042;-70
2022/05/22 02:50:04;;;;;;;9.18;5.07;;;7.80;99.90;;;;;;4991660;28;20111;-69
2022/05/22 02:52:31;;;;;;;9.98;4.20;;;7.70;99.90;;;;;;4985812;28;20062;-69
2022/05/22 02:54:57;;;;;;;3.10;2.50;;;7.70;99.90;;;;;;5009939;28;20050;-69
2022/05/22 02:57:25;;;;;;;8.60;4.93;;;7.60;99.90;;;;;;4989636;28;20050;-69
2022/05/22 02:59:53;;;;;;;12.50;6.80;;;7.60;99.90;;;;;;4996330;28;20111;-69
2022/05/22 03:02:20;;;;;;;34.67;5.40;;;7.60;99.90;;;;;;4978787;28;20046;-69
2022/05/22 03:04:49;;;;;;;10.32;4.90;;;7.60;99.90;;;;;;4981217;28;20060;-68
2022/05/22 03:07:18;;;;;;;9.95;5.82;;;7.50;99.90;;;;;;4997506;28;20050;-70
2022/05/22 03:09:46;;;;;;;13.02;5.00;;;7.60;99.90;;;;;;4996442;28;20453;-69
2022/05/22 03:12:21;;;;;;;17.73;5.47;;;7.50;99.90;;;;;;4989002;28;20050;-70
2022/05/22 03:14:50;;;;;;;13.45;6.63;;;7.50;99.90;;;;;;4990090;28;20111;-69
2022/05/22 03:17:17;;;;;;;14.07;6.70;;;7.50;99.90;;;;;;4976894;28;20376;-69
2022/05/22 03:19:43;;;;;;;11.90;6.10;;;7.50;99.90;;;;;;4973642;28;20077;-69
2022/05/22 03:22:11;;;;;;;11.13;5.93;;;7.50;99.90;;;;;;4982346;28;20046;-70
2022/05/22 03:24:38;;;;;;;16.42;9.10;;;7.50;99.90;;;;;;4945502;28;20056;-69
2022/05/22 03:27:07;;;;;;;16.77;8.43;;;7.50;99.90;;;;;;4977595;28;20190;-69
2022/05/22 03:29:33;;;;;;;19.35;6.85;;;7.60;99.90;;;;;;4958500;28;20058;-69
2022/05/22 03:31:59;;;;;;;14.82;7.55;;;7.60;99.90;;;;;;4978831;28;20049;-69
2022/05/22 03:34:26;;;;;;;12.75;5.55;;;7.60;99.90;;;;;;4980881;28;20141;-70
2022/05/22 03:36:52;;;;;;;9.68;5.90;;;7.50;99.90;;;;;;4997141;28;20057;-70
2022/05/22 03:39:18;;;;;;;9.23;5.97;;;7.50;99.90;;;;;;4996480;28;20392;-69
2022/05/22 03:41:44;;;;;;;13.88;6.18;;;7.50;99.90;;;;;;4995855;28;20041;-69
2022/05/22 03:44:10;;;;;;;11.45;6.65;;;7.50;99.90;;;;;;4993344;28;20097;-69
2022/05/22 03:46:36;;;;;;;12.20;6.70;;;7.60;99.90;;;;;;4977151;28;20046;-69
2022/05/22 03:49:02;;;;;;;11.57;6.43;;;7.60;99.90;;;;;;4978779;28;20487;-70
2022/05/22 03:51:28;;;;;;;12.52;6.53;;;7.60;99.90;;;;;;4969238;28;20450;-69
2022/05/22 03:53:54;;;;;;;12.38;6.53;;;7.70;99.90;;;;;;4964206;28;20089;-69
2022/05/22 03:56:21;;;;;;;19.48;7.90;;;7.80;99.90;;;;;;4977338;28;20063;-69
2022/05/22 03:58:48;;;;;;;15.90;7.82;;;7.90;99.90;;;;;;4991067;28;20127;-71
2022/05/22 04:01:14;;;;;;;14.48;8.05;;;7.90;99.90;;;;;;4981123;28;20045;-70
2022/05/22 04:03:40;;;;;;;12.55;6.22;;;8.00;99.90;;;;;;4979931;28;20042;-70
2022/05/22 04:06:09;;;;;;;13.93;6.20;;;8.00;99.90;;;;;;4977122;28;20089;-70
2022/05/22 04:08:36;;;;;;;26.40;7.13;;;8.00;99.90;;;;;;4982716;28;20058;-70
2022/05/22 04:11:14;;;;;;;10.48;6.05;;;7.90;99.90;;;;;;4989261;28;20487;-69
2022/05/22 04:13:40;;;;;;;24.75;6.43;;;7.90;99.90;;;;;;4979276;28;20041;-71
2022/05/22 04:16:06;;;;;;;31.92;7.65;;;7.90;99.90;;;;;;4979711;28;20046;-70
2022/05/22 04:18:33;;;;;;;19.85;6.90;;;8.00;99.90;;;;;;4995550;28;20049;-70
2022/05/22 04:20:59;;;;;;;15.57;7.45;;;8.00;99.90;;;;;;5009994;28;20073;-68
2022/05/22 04:26:11;;;;;;;21.98;8.43;;;8.10;99.90;;;;;;4976772;28;20054;-69
2022/05/22 04:28:37;;;;;;;21.27;8.15;;;8.10;99.90;;;;;;4987853;28;20046;-70
2022/05/22 04:31:03;;;;;;;16.00;7.72;;;8.20;99.90;;;;;;4965735;28;20041;-69
2022/05/22 04:33:31;;;;;;;16.63;7.70;;;8.30;99.90;;;;;;4960404;28;20447;-69
2022/05/22 04:35:57;;;;;;;18.52;8.38;;;8.50;99.90;;;;;;4976313;28;20054;-69
2022/05/22 04:38:23;;;;;;;24.10;10.20;;;8.60;99.90;;;;;;4976534;28;20414;-69
2022/05/22 04:40:57;;;;;;;21.85;8.38;;;8.80;99.90;;;;;;4987491;28;20490;-70
2022/05/22 04:43:25;;;;;;;20.55;9.77;;;8.90;99.90;;;;;;4995505;28;20050;-69
2022/05/22 04:45:52;;;;;;;21.17;10.68;;;9.00;99.90;;;;;;4979680;28;20129;-69
2022/05/22 04:48:19;;;;;;;25.63;11.75;;;9.20;99.90;;;;;;4976287;28;20054;-70
2022/05/22 04:50:49;;;;;;;27.42;11.57;;;9.20;99.90;;;;;;4983793;28;20089;-70
2022/05/22 04:53:17;;;;;;;24.80;11.13;;;9.40;99.90;;;;;;4983929;28;20143;-69
2022/05/22 04:55:43;;;;;;;23.00;10.85;;;9.40;99.90;;;;;;4959846;28;20101;-69
2022/05/22 04:58:09;;;;;;;28.90;10.95;;;9.50;99.90;;;;;;4976147;28;20078;-70
2022/05/22 05:00:35;;;;;;;23.30;11.23;;;9.60;99.90;;;;;;4977304;28;20050;-71
2022/05/22 05:03:01;;;;;;;22.92;11.10;;;9.70;99.90;;;;;;4967773;28;20057;-70
2022/05/22 05:05:30;;;;;;;21.55;10.25;;;9.80;99.90;;;;;;4959746;28;20141;-70
2022/05/22 05:07:57;;;;;;;27.65;10.95;;;9.90;99.90;;;;;;4975925;28;20054;-70
2022/05/22 05:10:24;;;;;;;25.27;10.95;;;9.90;99.90;;;;;;4977575;28;20072;-69
2022/05/22 05:12:50;;;;;;;24.13;10.57;;;10.00;99.90;;;;;;4981529;28;20133;-69
2022/05/22 05:15:19;;;;;;;23.02;10.75;;;10.10;99.90;;;;;;4977439;28;20042;-69
2022/05/22 05:17:48;;;;;;;23.35;11.25;;;10.20;99.90;;;;;;4975222;28;20062;-69
2022/05/22 05:20:17;;;;;;;26.90;11.25;;;10.30;99.90;;;;;;4958753;28;20133;-70
2022/05/22 05:22:43;;;;;;;31.33;11.68;;;10.40;99.90;;;;;;4962730;28;20129;-70
2022/05/22 05:25:10;;;;;;;28.10;10.75;;;10.50;99.90;;;;;;4959601;28;20046;-69
2022/05/22 05:27:37;;;;;;;29.67;11.40;;;10.60;99.90;;;;;;4967377;28;20046;-70
2022/05/22 05:30:03;;;;;;;26.05;11.70;;;10.70;99.90;;;;;;4981803;28;20045;-69
2022/05/22 05:32:29;;;;;;;25.60;10.73;;;10.80;99.90;;;;;;4993855;28;20398;-69
2022/05/22 05:35:01;;;;;;;30.80;11.05;;;11.00;99.90;;;;;;4972108;28;20093;-70
2022/05/22 05:37:27;;;;;;;26.05;10.48;;;11.10;99.90;;;;;;4986485;28;20053;-70
2022/05/22 05:39:54;;;;;;;28.40;10.70;;;11.20;99.90;;;;;;4987734;28;20041;-69
2022/05/22 05:42:22;;;;;;;29.40;12.13;;;11.30;99.90;;;;;;4993480;28;20498;-70
2022/05/22 05:44:48;;;;;;;40.92;13.13;;;11.40;99.90;;;;;;4975829;28;20050;-69
2022/05/22 05:47:14;;;;;;;38.55;12.23;;;11.60;99.90;;;;;;5009531;28;20065;-70
2022/05/22 05:49:40;;;;;;;30.13;11.00;;;11.70;99.90;;;;;;4994823;28;20042;-72
2022/05/22 05:52:07;;;;;;;27.80;10.27;;;11.70;99.90;;;;;;4994284;28;20100;-69
2022/05/22 05:54:33;;;;;;;23.83;10.38;;;11.80;99.90;;;;;;4969828;28;20137;-71
2022/05/22 05:57:00;;;;;;;20.00;9.73;;;11.90;99.90;;;;;;4976489;28;20049;-70
2022/05/22 05:59:27;;;;;;;26.13;10.82;;;12.10;99.90;;;;;;4992472;28;20096;-70
2022/05/22 06:01:53;;;;;;;24.80;9.95;;;12.20;99.90;;;;;;4979233;28;20046;-70
2022/05/22 06:04:20;;;;;;;20.98;9.00;;;12.20;99.90;;;;;;4975098;28;20042;-73
2022/05/22 06:06:46;;;;;;;25.20;9.80;;;12.30;99.90;;;;;;4952898;28;20398;-70
2022/05/22 06:09:12;;;;;;;21.98;9.50;;;12.50;99.90;;;;;;4958636;28;20132;-70
2022/05/22 06:11:38;;;;;;;20.90;8.98;;;12.60;99.90;;;;;;4983062;28;20049;-71
2022/05/22 06:14:04;;;;;;;17.52;8.77;;;12.60;99.90;;;;;;4990311;28;20057;-70
2022/05/22 06:16:30;;;;;;;20.60;8.73;;;12.80;99.90;;;;;;4986489;28;20075;-70
2022/05/22 06:18:56;;;;;;;19.90;8.90;;;12.90;99.90;;;;;;4958951;28;20052;-70
2022/05/22 06:21:23;;;;;;;22.27;8.38;;;12.90;99.90;;;;;;4974438;28;20402;-70
2022/05/22 06:23:50;;;;;;;22.38;9.50;;;13.00;99.90;;;;;;4974904;28;20050;-71
2022/05/22 06:26:17;;;;;;;17.92;8.30;;;13.20;99.90;;;;;;4977747;28;20398;-70
2022/05/22 06:28:44;;;;;;;23.95;7.80;;;13.20;99.90;;;;;;4993897;28;20490;-70
2022/05/22 06:31:11;;;;;;;15.40;7.82;;;13.30;99.90;;;;;;4982197;28;20507;-70
2022/05/22 06:33:38;;;;;;;18.17;8.57;;;13.40;99.90;;;;;;4978632;28;20123;-71
2022/05/22 06:36:09;;;;;;;21.55;8.25;;;13.50;99.90;;;;;;4985009;28;20402;-70
2022/05/22 06:41:20;;;;;;;23.88;10.68;;;13.60;99.90;;;;;;4980782;28;19921;-70
2022/05/22 06:43:49;;;;;;;24.80;9.32;;;13.80;99.90;;;;;;4974446;28;20057;-70
2022/05/22 06:46:16;;;;;;;18.88;8.32;;;14.00;99.90;;;;;;4973919;28;20436;-70
2022/05/22 06:48:42;;;;;;;24.63;9.27;;;14.00;99.90;;;;;;4978423;28;20411;-70
2022/05/22 06:51:09;;;;;;;22.02;9.02;;;14.10;99.90;;;;;;4962026;28;20076;-71
2022/05/22 06:53:35;;;;;;;23.02;9.15;;;14.20;99.90;;;;;;4961897;28;20090;-69
2022/05/22 06:56:02;;;;;;;20.92;8.63;;;14.20;99.90;;;;;;4947729;28;20154;-70
2022/05/22 06:58:28;;;;;;;22.70;9.13;;;14.30;99.90;;;;;;4970746;28;20115;-72
2022/05/22 07:00:54;;;;;;;18.30;8.57;;;14.30;99.90;;;;;;4973234;28;20401;-70
2022/05/22 07:03:21;;;;;;;18.73;7.93;;;14.30;99.90;;;;;;4996472;28;20056;-70
2022/05/22 07:05:47;;;;;;;18.73;8.13;;;14.50;99.90;;;;;;4984693;28;20038;-70
2022/05/22 07:08:13;;;;;;;19.20;7.85;;;14.60;99.90;;;;;;4983974;28;20053;-70
2022/05/22 07:13:24;;;;;;;23.48;8.60;;;14.90;99.90;;;;;;4987593;28;20146;-70
2022/05/22 07:16:01;;;;;;;19.60;7.53;;;15.00;99.90;;;;;;4984391;28;20050;-70
2022/05/22 07:18:27;;;;;;;16.88;6.95;;;15.10;99.90;;;;;;4980771;28;20415;-71
2022/05/22 07:20:53;;;;;;;20.33;8.35;;;15.10;99.90;;;;;;4991276;28;20185;-70
2022/05/22 07:23:19;;;;;;;19.60;8.15;;;15.20;99.90;;;;;;5013845;28;20050;-71
2022/05/22 07:25:45;;;;;;;16.70;7.18;;;15.40;99.90;;;;;;4980095;28;20466;-70
2022/05/22 07:28:12;;;;;;;17.80;6.93;;;15.50;99.90;;;;;;4982389;28;20121;-71
2022/05/22 07:30:38;;;;;;;15.02;7.20;;;15.40;99.90;;;;;;4989428;28;20054;-72
2022/05/22 07:33:04;;;;;;;16.65;6.65;;;15.50;99.90;;;;;;4990605;28;20050;-70
2022/05/22 07:35:31;;;;;;;14.18;6.35;;;15.40;99.90;;;;;;4964793;28;20052;-70
2022/05/22 07:37:57;;;;;;;14.20;5.57;;;15.50;99.90;;;;;;4980469;28;20053;-70
2022/05/22 07:40:23;;;;;;;13.52;5.70;;;15.60;99.90;;;;;;4979661;28;20143;-70
2022/05/22 07:42:49;;;;;;;14.55;5.95;;;15.70;99.90;;;;;;4983114;28;20050;-70
2022/05/22 07:45:15;;;;;;;14.50;6.55;;;15.80;99.90;;;;;;5013004;28;20053;-71
2022/05/22 07:47:42;;;;;;;15.10;6.65;;;16.00;99.90;;;;;;4989398;28;20042;-71
2022/05/22 07:53:12;;;;;;;13.50;4.90;;;16.10;99.90;;;;;;5000479;28;20056;-70
2022/05/22 07:55:41;;;;;;;12.93;6.10;;;16.00;99.90;;;;;;4990647;28;20630;-72
2022/05/22 07:58:07;;;;;;;14.23;5.88;;;16.10;99.90;;;;;;5006965;28;20046;-69
2022/05/22 08:00:33;;;;;;;10.63;4.22;;;16.10;99.90;;;;;;4979041;28;20125;-70
2022/05/22 08:02:59;;;;;;;11.82;4.85;;;16.10;99.90;;;;;;5012830;28;20137;-71
2022/05/22 08:05:25;;;;;;;15.68;6.70;;;16.50;99.90;;;;;;4963717;28;20061;-73
2022/05/22 08:07:51;;;;;;;16.33;6.70;;;16.60;99.90;;;;;;4986929;28;20491;-70
2022/05/22 08:10:18;;;;;;;19.52;7.97;;;16.80;99.90;;;;;;4988621;28;20129;-72
2022/05/22 08:12:49;;;;;;;14.00;6.13;;;16.80;99.90;;;;;;4988768;28;20473;-70
2022/05/22 08:15:19;;;;;;;14.45;6.55;;;17.00;99.90;;;;;;4995394;28;20062;-70
2022/05/22 08:17:46;;;;;;;12.70;6.80;;;17.10;99.90;;;;;;4993923;28;20660;-71
2022/05/22 08:20:15;;;;;;;15.82;7.15;;;17.30;99.90;;;;;;4995029;28;20530;-71
2022/05/22 08:22:44;;;;;;;15.43;6.57;;;17.30;99.90;;;;;;4978733;28;20053;-70
2022/05/22 08:25:12;;;;;;;12.40;6.03;;;17.40;99.90;;;;;;4994797;28;20375;-71
2022/05/22 08:27:38;;;;;;;11.75;4.00;;;17.40;99.90;;;;;;4988630;28;20046;-74
2022/05/22 08:30:05;;;;;;;13.23;3.78;;;16.90;99.90;;;;;;4987723;28;20057;-70
2022/05/22 08:32:31;;;;;;;9.35;3.40;;;16.70;99.90;;;;;;5012597;28;20057;-70
2022/05/22 08:34:57;;;;;;;9.02;3.72;;;16.70;99.90;;;;;;4996085;28;20049;-72
2022/05/22 08:37:23;;;;;;;11.57;3.78;;;17.10;99.90;;;;;;4996131;28;20124;-70
2022/05/22 08:39:49;;;;;;;11.82;3.88;;;17.40;99.90;;;;;;4993539;28;20522;-70
2022/05/22 08:42:23;;;;;;;11.55;4.00;;;17.60;99.90;;;;;;4979803;28;20054;-70
2022/05/22 08:44:54;;;;;;;11.00;4.05;;;17.80;99.90;;;;;;4992633;28;20081;-70
2022/05/22 08:47:41;;;;;;;9.98;3.78;;;18.10;99.90;;;;;;4993752;28;20113;-71
2022/05/22 08:50:11;;;;;;;10.98;4.15;;;18.00;99.90;;;;;;4979659;28;20054;-71
2022/05/22 08:52:45;;;;;;;10.75;4.35;;;18.10;99.90;;;;;;4988463;28;20494;-71
2022/05/22 09:01:15;;;;;;;11.90;3.65;;;18.40;99.90;;;;;;4993193;28;20071;-71
2022/05/22 09:04:10;;;;;;;10.07;3.63;;;18.20;99.90;;;;;;4991898;28;20050;-71
2022/05/22 09:06:42;;;;;;;8.40;3.40;;;17.90;99.90;;;;;;4975467;28;20062;-72
2022/05/22 09:09:08;;;;;;;10.38;3.15;;;17.80;99.90;;;;;;4967343;28;20046;-75
2022/05/22 09:11:52;;;;;;;11.13;3.92;;;17.80;99.90;;;;;;4993493;28;20046;-70
2022/05/22 09:14:24;;;;;;;9.35;3.90;;;18.00;99.90;;;;;;4985449;28;20332;-70
2022/05/22 09:17:00;;;;;;;8.98;3.30;;;18.20;99.90;;;;;;4992209;28;20046;-70
2022/05/22 09:19:40;;;;;;;11.50;3.65;;;18.40;99.90;;;;;;4990972;28;20108;-71
2022/05/22 09:22:30;;;;;;;13.52;3.63;;;18.10;99.90;;;;;;4977683;28;20050;-71
2022/05/22 09:25:27;;;;;;;11.50;3.78;;;18.20;99.90;;;;;;5006980;28;20081;-70
2022/05/22 09:27:55;;;;;;;9.88;3.28;;;18.50;99.90;;;;;;5005086;28;20051;-70
2022/05/22 09:30:21;;;;;;;8.93;3.55;;;18.20;99.90;;;;;;4989814;28;20053;-71
2022/05/22 09:33:10;;;;;;;13.00;3.97;;;18.20;99.90;;;;;;4979324;28;20046;-75
2022/05/22 09:35:59;;;;;;;10.68;3.30;;;18.30;99.90;;;;;;4966324;28;20059;-75
2022/05/22 09:38:25;;;;;;;10.65;3.85;;;18.60;99.90;;;;;;4983619;28;20536;-76
2022/05/22 09:41:06;;;;;;;10.35;3.42;;;18.80;99.90;;;;;;4990704;28;20108;-80
2022/05/22 09:43:46;;;;;;;9.43;3.22;;;19.10;99.90;;;;;;4994142;28;20087;-76
2022/05/22 09:46:40;;;;;;;7.87;2.67;;;19.50;99.90;;;;;;4988646;28;20053;-75
2022/05/22 09:49:30;;;;;;;5.47;1.92;;;19.50;99.90;;;;;;5004687;28;20042;-74
2022/05/22 09:52:05;;;;;;;6.63;2.30;;;19.80;99.90;;;;;;5005527;28;20054;-74
2022/05/22 09:54:55;;;;;;;5.15;2.35;;;20.20;99.90;;;;;;4986647;28;20058;-76
2022/05/22 09:57:40;;;;;;;7.30;2.53;;;20.60;99.90;;;;;;4994472;28;20136;-75
2022/05/22 10:00:35;;;;;;;9.23;2.60;;;20.40;99.90;;;;;;4980809;28;20053;-76
2022/05/22 10:03:04;;;;;;;9.48;2.60;;;20.00;99.90;;;;;;4983898;28;20054;-74
2022/05/22 10:05:57;;;;;;;8.38;2.78;;;19.70;99.90;;;;;;4994675;28;20490;-74
2022/05/22 10:08:42;;;;;;;7.43;2.40;;;19.40;99.90;;;;;;4994473;28;20042;-74
2022/05/22 10:11:46;;;;;;;7.43;2.60;;;19.40;99.90;;;;;;5009874;28;20046;-74
2022/05/22 10:14:31;;;;;;;5.35;2.05;;;19.40;99.90;;;;;;4972015;28;20058;-74
2022/05/22 10:17:06;;;;;;;8.02;2.25;;;19.40;99.90;;;;;;4976568;28;20050;-73
2022/05/22 10:20:04;;;;;;;9.30;2.85;;;19.70;99.90;;;;;;4974845;28;20495;-76
2022/05/22 10:22:48;;;;;;;7.95;2.70;;;20.00;99.90;;;;;;4985762;28;20523;-74
2022/05/22 10:25:41;;;;;;;12.40;3.00;;;20.20;99.90;;;;;;5004547;28;20050;-74
2022/05/22 10:28:13;;;;;;;5.85;2.63;;;20.40;99.90;;;;;;4981663;28;20045;-73
2022/05/22 10:30:49;;;;;;;7.43;2.75;;;20.70;99.90;;;;;;4992657;28;20402;-73
2022/05/22 10:33:45;;;;;;;13.02;2.72;;;20.90;99.90;;;;;;4994372;28;20054;-73
2022/05/22 10:36:15;;;;;;;6.50;2.42;;;21.10;99.90;;;;;;4989925;28;20054;-74
2022/05/22 10:39:03;;;;;;;8.85;3.05;;;21.30;99.90;;;;;;4977812;28;20128;-74
2022/05/22 10:44:16;;;;;;;7.22;2.70;;;20.80;99.90;;;;;;5006620;28;20160;-75
2022/05/22 10:46:52;;;;;;;7.45;2.53;;;20.80;99.90;;;;;;4967469;28;20085;-74
2022/05/22 10:49:34;;;;;;;9.20;2.67;;;20.70;99.90;;;;;;4993153;28;20479;-75
2022/05/22 10:52:03;;;;;;;8.02;2.45;;;20.80;99.90;;;;;;4963855;28;20065;-75
2022/05/22 10:54:34;;;;;;;9.07;2.50;;;20.80;99.90;;;;;;4978729;28;20066;-75
2022/05/22 10:57:08;;;;;;;;;;;20.70;99.90;;;;;;4958821;28;20542;-75
2022/05/22 10:59:34;;;;;;;8.52;2.67;;;20.50;99.90;;;;;;4973924;28;19922;-75
2022/05/22 11:02:04;;;;;;;10.13;2.47;;;20.50;99.90;;;;;;4974339;28;20046;-74
2022/05/22 11:04:41;;;;;;;13.18;2.80;;;20.40;99.90;;;;;;4984701;28;20487;-75
2022/05/22 11:07:08;;;;;;;10.10;2.47;;;20.40;99.90;;;;;;4962754;28;20065;-75
2022/05/22 11:09:46;;;;;;;9.93;3.20;;;20.40;99.90;;;;;;4974071;28;20054;-73
2022/05/22 11:12:15;;;;;;;7.72;2.35;;;20.40;99.90;;;;;;4974252;28;20051;-74
2022/05/22 11:14:42;;;;;;;14.48;3.90;;;20.50;99.90;;;;;;4971876;28;20061;-73
2022/05/22 11:17:14;;;;;;;8.30;2.55;;;20.60;99.90;;;;;;4996939;28;20137;-74
2022/05/22 11:19:43;;;;;;;7.45;2.38;;;20.70;99.90;;;;;;4979732;28;20054;-73
2022/05/22 11:22:31;;;;;;;6.80;2.65;;;20.70;99.90;;;;;;4981272;28;20045;-73
2022/05/22 11:25:05;;;;;;;8.80;2.55;;;20.50;99.90;;;;;;5012609;28;20038;-73
2022/05/22 11:27:53;;;;;;;9.77;2.63;;;20.60;99.90;;;;;;4997238;28;20057;-73
2022/05/22 11:30:46;;;;;;;10.13;2.70;;;20.50;99.90;;;;;;4995553;28;20046;-74
2022/05/22 11:33:32;;;;;;;10.63;2.70;;;20.80;99.90;;;;;;4962579;28;20422;-73
2022/05/22 11:36:31;;;;;;;11.40;2.60;;;21.10;99.90;;;;;;4995021;28;20384;-73
2022/05/22 11:39:19;;;;;;;8.00;2.72;;;21.40;99.90;;;;;;4996936;28;20121;-73
2022/05/22 11:42:02;;;;;;;7.65;2.60;;;21.50;99.90;;;;;;5013114;28;20045;-73
2022/05/22 11:44:44;;;;;;;7.15;2.60;;;21.50;99.90;;;;;;4991281;28;20073;-73
2022/05/22 11:47:25;;;;;;;8.23;2.80;;;21.90;99.90;;;;;;4965277;28;20170;-72
2022/05/22 11:50:28;;;;;;;8.02;2.95;;;22.20;99.90;;;;;;4976907;28;20150;-72
2022/05/22 11:53:16;;;;;;;6.90;2.38;;;22.40;75.00;;;;;;4985231;28;20092;-72
2022/05/22 11:55:46;;;;;;;7.07;2.50;;;22.10;99.90;;;;;;5009832;28;20062;-73
2022/05/22 11:58:33;;;;;;;5.93;2.13;;;21.80;99.90;;;;;;4985172;28;20132;-72
2022/05/22 12:01:05;;;;;;;5.85;2.40;;;21.90;99.90;;;;;;4987634;28;20053;-73
2022/05/22 12:03:39;;;;;;;8.25;2.20;;;21.90;99.90;;;;;;4995651;28;20042;-78
2022/05/22 12:06:12;;;;;;;7.38;2.55;;;21.90;99.90;;;;;;4996665;28;20053;-72
2022/05/22 12:08:47;;;;;;;5.15;2.22;;;21.70;99.90;;;;;;5008944;28;20145;-74
2022/05/22 12:11:30;;;;;;;7.75;2.17;;;22.00;99.90;;;;;;4988213;28;20046;-73
2022/05/22 12:14:20;;;;;;;6.25;2.20;;;22.50;99.90;;;;;;4995372;28;20034;-73
2022/05/22 12:16:59;;;;;;;6.13;2.10;;;23.00;99.90;;;;;;5007418;28;20506;-73
2022/05/22 12:19:33;;;;;;;6.13;2.05;;;23.20;88.80;;;;;;4995612;28;20465;-77
2022/05/22 12:22:15;;;;;;;7.85;2.13;;;23.70;99.90;;;;;;4999935;28;20140;-75
2022/05/22 12:24:47;;;;;;;4.28;1.95;;;24.00;99.90;;;;;;4992105;28;20449;-75
2022/05/22 12:27:21;;;;;;;6.18;2.10;;;24.40;99.90;;;;;;4994564;28;20081;-75
2022/05/22 12:29:56;;;;;;;6.18;2.20;;;24.80;82.90;;;;;;4994310;28;20042;-75
2022/05/22 12:32:25;;;;;;;4.15;1.90;;;24.90;80.10;;;;;;4996234;28;20042;-74
2022/05/22 12:34:55;;;;;;;6.53;1.92;;;25.30;87.00;;;;;;4989067;28;20042;-75
2022/05/22 12:37:30;;;;;;;6.32;2.22;;;25.60;90.80;;;;;;4969149;28;20050;-72
2022/05/22 12:40:19;;;;;;;10.35;2.00;;;25.70;74.90;;;;;;4994874;28;20058;-72
2022/05/22 12:43:06;;;;;;;4.55;1.88;;;25.60;65.00;;;;;;4961855;28;20066;-72
2022/05/22 12:45:33;;;;;;;6.35;2.08;;;25.60;61.30;;;;;;4995210;28;20623;-73
2022/05/22 12:48:27;;;;;;;4.18;1.60;;;25.80;83.80;;;;;;4994299;28;20506;-72
2022/05/22 12:51:09;;;;;;;6.00;1.77;;;26.20;64.30;;;;;;4967895;28;20038;-72
2022/05/22 12:53:37;;;;;;;6.20;1.58;;;26.50;63.60;;;;;;4979513;28;20061;-72
2022/05/22 12:56:24;;;;;;;3.85;1.95;;;26.40;73.10;;;;;;5002078;28;20441;-72
2022/05/22 12:58:52;;;;;;;4.00;1.70;;;26.60;60.80;;;;;;4972861;28;20054;-72
2022/05/22 13:01:37;;;;;;;5.03;1.63;;;26.20;63.90;;;;;;4975582;28;20053;-74
2022/05/22 13:04:28;;;;;;;5.03;1.90;;;26.30;58.30;;;;;;4996749;28;20124;-71
2022/05/22 13:06:56;;;;;;;5.13;1.75;;;26.60;59.70;;;;;;4993143;28;20042;-72
2022/05/22 13:09:24;;;;;;;5.40;1.40;;;26.50;61.50;;;;;;4992107;28;20073;-76
2022/05/22 13:11:58;;;;;;;5.82;1.55;;;26.80;60.90;;;;;;4989676;28;20057;-72
2022/05/22 13:14:28;;;;;;;4.60;1.60;;;27.20;58.00;;;;;;4986505;28;20045;-75
2022/05/22 13:16:54;;;;;;;3.65;1.60;;;27.10;58.30;;;;;;4993025;28;20038;-73
2022/05/22 13:19:24;;;;;;;6.00;1.67;;;26.70;57.80;;;;;;4991502;28;20052;-75
2022/05/22 13:21:52;;;;;;;8.10;1.60;;;26.30;57.70;;;;;;4986622;28;20047;-74
2022/05/22 13:24:18;;;;;;;4.97;1.52;;;25.90;58.60;;;;;;5003307;28;20046;-73
2022/05/22 13:27:06;;;;;;;5.68;1.80;;;25.60;58.40;;;;;;4994488;28;20049;-74